Time;durP1;ratioP1;P1;durP2;ratioP2;P2;SDS_P1;SDS_P2;PMS_P1;PMS_P2;Temp;Humidity;BMP_temperature;BMP_pressure;BME280_temperature;BME280_humidity;BME280_pressure;Samples;Min_cycle;Max_cycle;Signal;HPM_P1;HPM_P2
2022/10/31 00:02:02;;;;;;;26.80;13.40;;;;;;;13.20;100.00;100359.19;5006584;28;20049;-80
2022/10/31 00:04:28;;;;;;;24.83;15.25;;;;;;;13.12;100.00;100359.06;5003274;28;20073;-79
2022/10/31 00:06:53;;;;;;;27.50;15.32;;;;;;;13.02;100.00;100358.16;5005044;28;20046;-79
2022/10/31 00:09:20;;;;;;;30.02;14.82;;;;;;;12.93;100.00;100351.91;5008152;28;20470;-78
2022/10/31 00:11:45;;;;;;;23.38;15.02;;;;;;;12.87;100.00;100354.25;5004171;28;20056;-76
2022/10/31 00:14:11;;;;;;;24.77;15.18;;;;;;;12.79;100.00;100357.59;5006416;28;20154;-80
2022/10/31 00:16:36;;;;;;;28.15;15.63;;;;;;;12.75;100.00;100365.94;5008448;28;20032;-79
2022/10/31 00:19:05;;;;;;;22.10;13.90;;;;;;;12.70;100.00;100364.56;5007964;28;20026;-78
2022/10/31 00:21:32;;;;;;;21.88;13.68;;;;;;;12.70;100.00;100359.25;5005571;28;20042;-79
2022/10/31 00:23:58;;;;;;;26.77;13.55;;;;;;;12.72;100.00;100357.28;5005114;28;20085;-77
2022/10/31 00:26:24;;;;;;;19.42;13.13;;;;;;;12.78;100.00;100360.41;5008016;28;20336;-78
2022/10/31 00:28:50;;;;;;;23.85;15.10;;;;;;;12.80;100.00;100358.44;5004783;28;20088;-79
2022/10/31 00:31:16;;;;;;;26.00;14.85;;;;;;;12.82;100.00;100359.13;5003554;28;20026;-79
2022/10/31 00:33:43;;;;;;;24.48;15.00;;;;;;;12.85;100.00;100361.50;5005919;28;20402;-80
2022/10/31 00:36:12;;;;;;;23.85;14.23;;;;;;;12.83;100.00;100364.31;5003245;28;20034;-79
2022/10/31 00:38:40;;;;;;;21.83;15.07;;;;;;;12.85;100.00;100356.19;5004565;28;20037;-79
2022/10/31 00:41:05;;;;;;;26.50;14.88;;;;;;;12.84;100.00;100359.84;5002806;28;20034;-79
2022/10/31 00:43:31;;;;;;;27.30;14.93;;;;;;;12.80;100.00;100358.44;5004468;28;20072;-79
2022/10/31 00:45:56;;;;;;;27.23;15.50;;;;;;;12.72;100.00;100362.59;5009793;28;20029;-78
2022/10/31 00:48:23;;;;;;;27.35;16.27;;;;;;;12.69;100.00;100362.88;5009216;28;20385;-78
2022/10/31 00:50:49;;;;;;;21.75;15.23;;;;;;;12.61;100.00;100360.06;5006158;28;20037;-79
2022/10/31 00:53:14;;;;;;;;;;;;;;;12.54;100.00;100353.66;5003073;28;20037;-80
2022/10/31 00:55:40;;;;;;;;;;;;;;;12.51;100.00;100356.56;5005115;28;19920;-79
2022/10/31 00:58:05;;;;;;;;;;;;;;;12.51;100.00;100359.22;5002976;28;19925;-79
2022/10/31 01:00:31;;;;;;;;;;;;;;;12.56;100.00;100354.34;5006033;28;19918;-79
2022/10/31 01:02:56;;;;;;;;;;;;;;;12.54;100.00;100364.25;5002550;28;19984;-80
2022/10/31 01:05:23;;;;;;;;;;;;;;;12.49;100.00;100362.97;5005318;28;19924;-79
2022/10/31 01:07:48;;;;;;;;;;;;;;;12.44;100.00;100358.06;5023134;28;20271;-80
2022/10/31 01:10:14;;;;;;;;;;;;;;;12.46;100.00;100358.78;5004680;28;19933;-80
2022/10/31 01:12:41;;;;;;;;;;;;;;;12.44;100.00;100358.06;5005930;28;19917;-79
2022/10/31 01:15:08;;;;;;;;;;;;;;;12.45;100.00;100354.47;5002798;28;19918;-80
2022/10/31 01:17:33;;;;;;;;;;;;;;;12.45;100.00;100354.47;5009681;28;19917;-79
2022/10/31 01:19:59;;;;;;;;;;;;;;;12.52;100.00;100358.25;5001053;28;20289;-78
2022/10/31 01:22:26;;;;;;;;;;;;;;;12.55;100.00;100355.31;5002441;28;20012;-79
2022/10/31 01:24:51;;;;;;;;;;;;;;;12.45;100.00;100351.81;5005738;28;20008;-79
2022/10/31 01:27:18;;;;;;;;;;;;;;;12.43;100.00;100356.41;5001479;28;20366;-79
2022/10/31 01:29:44;;;;;;;;;;;;;;;12.43;100.00;100356.41;5005475;28;19987;-79
2022/10/31 01:32:10;;;;;;;;;;;;;;;12.39;100.00;100360.28;5004648;28;20380;-79
2022/10/31 01:34:35;;;;;;;;;;;;;;;12.41;100.00;100358.34;5005078;28;20345;-77
2022/10/31 01:37:00;;;;;;;;;;;;;;;12.36;100.00;100357.94;5004321;28;19971;-78
2022/10/31 01:39:26;;;;;;;;;;;;;;;12.26;100.00;100355.22;5005461;28;19917;-79
2022/10/31 01:41:53;;;;;;;25.70;14.48;;;;;;;12.11;100.00;100361.03;5003932;28;19917;-79
2022/10/31 01:44:18;;;;;;;24.33;14.82;;;;;;;12.22;100.00;100359.13;5003156;28;20030;-78
2022/10/31 01:46:44;;;;;;;25.17;14.98;;;;;;;12.24;100.00;100357.19;5006990;28;20498;-79
2022/10/31 01:49:28;;;;;;;24.60;14.68;;;;;;;12.24;100.00;100356.34;5003043;28;20496;-79
2022/10/31 01:52:00;;;;;;;24.73;14.27;;;;;;;12.25;100.00;100352.75;5005973;28;20478;-79
2022/10/31 01:54:32;;;;;;;22.60;15.27;;;;;;;12.23;100.00;100349.38;5007200;28;20050;-79
2022/10/31 01:56:59;;;;;;;22.77;13.93;;;;;;;12.13;100.00;100344.06;5011898;28;20136;-79
2022/10/31 01:59:30;;;;;;;26.95;15.85;;;;;;;12.18;100.00;100352.44;5002774;28;20038;-78
2022/10/31 02:01:56;;;;;;;24.10;14.73;;;;;;;12.20;100.00;100344.34;5007245;28;20088;-79
2022/10/31 02:04:24;;;;;;;25.60;13.82;;;;;;;12.19;100.00;100338.22;5006633;28;20398;-78
2022/10/31 02:07:05;;;;;;;30.15;15.05;;;;;;;12.06;100.00;100342.09;5009497;28;20045;-79
2022/10/31 02:09:31;;;;;;;19.73;13.75;;;;;;;11.99;100.00;100346.22;5007973;28;20042;-77
2022/10/31 02:11:59;;;;;;;28.20;14.38;;;;;;;11.86;100.00;100347.28;5007293;28;20080;-78
2022/10/31 02:14:28;;;;;;;26.45;14.90;;;;;;;11.81;100.00;100344.19;5013074;28;20113;-79
2022/10/31 02:16:53;;;;;;;26.88;14.63;;;;;;;11.90;100.00;100342.53;5011754;28;20026;-79
2022/10/31 02:19:34;;;;;;;24.48;14.77;;;;;;;11.76;100.00;100337.63;5007152;28;20026;-79
2022/10/31 02:22:10;;;;;;;22.92;14.55;;;;;;;11.84;100.00;100335.13;5006972;28;20031;-79
2022/10/31 02:24:44;;;;;;;26.98;14.93;;;;;;;11.94;100.00;100343.13;5013026;28;20038;-78
2022/10/31 02:27:39;;;;;;;27.17;15.38;;;;;;;11.84;100.00;100335.97;5007018;28;20045;-79
2022/10/31 02:30:22;;;;;;;29.55;16.00;;;;;;;11.77;100.00;100332.22;5009305;28;20397;-79
2022/10/31 02:33:00;;;;;;;26.70;15.65;;;;;;;11.88;100.00;100329.47;5008703;28;20033;-79
2022/10/31 02:36:02;;;;;;;28.08;16.63;;;;;;;11.83;100.00;100326.41;5007660;28;20030;-80
2022/10/31 02:38:46;;;;;;;28.65;16.48;;;;;;;11.92;100.00;100323.91;5006151;28;20133;-79
2022/10/31 02:41:22;;;;;;;29.27;17.55;;;;;;;11.95;100.00;100336.88;5008173;28;20068;-79
2022/10/31 02:44:12;;;;;;;32.83;15.77;;;;;;;11.95;100.00;100327.16;5006692;28;20041;-79
2022/10/31 02:46:48;;;;;;;27.55;16.13;;;;;;;11.79;100.00;100330.25;5008691;28;20092;-79
2022/10/31 02:49:40;;;;;;;26.80;16.13;;;;;;;11.89;100.00;100325.88;5019323;28;20061;-79
2022/10/31 02:52:21;;;;;;;26.92;16.42;;;;;;;11.94;100.00;100322.81;5021969;28;20372;-79
2022/10/31 02:54:47;;;;;;;26.92;15.65;;;;;;;12.01;100.00;100325.78;5005519;28;20034;-79
2022/10/31 02:57:17;;;;;;;30.17;17.42;;;;;;;11.85;100.00;100329.72;5011672;28;20076;-79
2022/10/31 02:59:53;;;;;;;27.20;15.90;;;;;;;11.89;100.00;100325.03;5005698;28;20038;-79
2022/10/31 03:02:30;;;;;;;34.60;17.33;;;;;;;11.64;100.00;100325.41;5007104;28;20037;-79
2022/10/31 03:05:21;;;;;;;27.00;16.30;;;;;;;11.61;100.00;100329.16;5004097;28;20041;-79
2022/10/31 03:08:05;;;;;;;26.95;16.10;;;;;;;11.70;100.00;100331.03;5018177;28;20038;-79
2022/10/31 03:10:35;;;;;;;29.13;16.50;;;;;;;11.57;100.00;100319.81;5021723;28;20121;-80
2022/10/31 03:13:20;;;;;;;27.97;15.80;;;;;;;11.67;100.00;100325.97;5006086;28;20658;-79
2022/10/31 03:15:56;;;;;;;28.48;16.85;;;;;;;11.75;100.00;100323.56;5011376;28;20117;-79
2022/10/31 03:18:45;;;;;;;25.77;16.45;;;;;;;11.76;100.00;100325.25;5007620;28;20493;-79
2022/10/31 03:21:14;;;;;;;24.10;15.73;;;;;;;11.78;100.00;100327.75;5005585;28;20037;-79
2022/10/31 03:23:43;;;;;;;29.75;16.20;;;;;;;11.62;100.00;100332.63;5004617;28;20042;-79
2022/10/31 03:26:16;;;;;;;24.52;15.65;;;;;;;11.51;100.00;100325.63;5007092;28;20113;-79
2022/10/31 03:29:00;;;;;;;28.05;16.17;;;;;;;11.62;100.00;100333.47;5007458;28;20133;-79
2022/10/31 03:31:33;;;;;;;24.90;15.90;;;;;;;11.61;100.00;100337.06;5020647;28;20554;-79
2022/10/31 03:34:00;;;;;;;25.48;15.65;;;;;;;11.69;100.00;100339.91;5008062;28;20023;-79
2022/10/31 03:36:34;;;;;;;27.77;15.13;;;;;;;11.73;100.00;100336.06;5007270;28;20061;-79
2022/10/31 03:39:05;;;;;;;25.17;15.88;;;;;;;11.78;100.00;100335.69;5005510;28;20029;-78
2022/10/31 03:41:35;;;;;;;21.02;15.90;;;;;;;11.72;100.00;100338.84;5004560;28;20030;-78
2022/10/31 03:44:10;;;;;;;21.98;15.32;;;;;;;11.70;100.00;100343.41;5025251;28;20030;-79
2022/10/31 03:46:38;;;;;;;30.77;17.38;;;;;;;11.48;100.00;100337.31;5012444;28;20079;-79
2022/10/31 03:49:04;;;;;;;25.30;14.50;;;;;;;11.51;100.00;100336.19;5005477;28;20032;-79
2022/10/31 03:51:42;;;;;;;27.67;15.88;;;;;;;11.60;100.00;100340.72;5008057;28;20030;-77
2022/10/31 03:54:31;;;;;;;24.38;15.57;;;;;;;11.67;100.00;100341.84;5008479;28;20125;-80
2022/10/31 03:57:05;;;;;;;25.55;14.70;;;;;;;11.67;100.00;100341.84;5004958;28;20379;-79
2022/10/31 03:59:54;;;;;;;31.02;16.45;;;;;;;11.64;100.00;100342.13;5006156;28;20132;-78
2022/10/31 04:02:25;;;;;;;27.63;16.08;;;;;;;11.60;100.00;100342.50;5023225;28;20034;-79
2022/10/31 04:04:51;;;;;;;28.02;15.98;;;;;;;11.47;100.00;100337.44;5003216;28;20026;-79
2022/10/31 04:07:20;;;;;;;26.05;16.50;;;;;;;11.28;100.00;100345.22;5005542;28;20040;-79
2022/10/31 04:09:51;;;;;;;25.45;15.15;;;;;;;11.09;100.00;100346.75;5003602;28;20034;-79
2022/10/31 04:12:20;;;;;;;25.45;16.08;;;;;;;11.29;100.00;100352.19;5006389;28;20080;-79
2022/10/31 04:15:15;;;;;;;31.38;16.90;;;;;;;11.26;100.00;100350.63;5005794;28;20030;-79
2022/10/31 04:17:44;;;;;;;25.42;16.67;;;;;;;11.31;100.00;100344.97;4995208;28;20048;-79
2022/10/31 04:20:10;;;;;;;24.35;15.82;;;;;;;11.17;100.00;100347.91;5002038;28;20061;-79
2022/10/31 04:22:36;;;;;;;24.40;14.30;;;;;;;11.05;100.00;100345.31;5005116;28;20038;-79
2022/10/31 04:25:01;;;;;;;26.42;16.13;;;;;;;11.16;100.00;100346.22;5006593;28;20502;-78
2022/10/31 04:27:26;;;;;;;24.05;14.57;;;;;;;11.09;100.00;100341.47;4991077;28;20029;-79
2022/10/31 04:29:52;;;;;;;25.67;15.35;;;;;;;10.92;100.00;100344.66;5007551;28;20141;-78
2022/10/31 04:32:17;;;;;;;23.20;14.68;;;;;;;10.94;100.00;100348.00;5000802;28;20042;-78
2022/10/31 04:34:43;;;;;;;25.48;15.32;;;;;;;10.96;100.00;100350.50;5006345;28;20065;-78
2022/10/31 04:37:09;;;;;;;24.63;15.13;;;;;;;10.87;100.00;100346.84;5003458;28;20034;-78
2022/10/31 04:39:35;;;;;;;23.85;14.68;;;;;;;10.90;100.00;100346.56;5007988;28;20081;-79
2022/10/31 04:42:23;;;;;;;22.67;14.95;;;;;;;10.98;100.00;100344.16;5003576;28;20030;-78
2022/10/31 04:44:48;;;;;;;20.98;13.95;;;;;;;11.05;100.00;100344.47;5003442;28;20117;-78
2022/10/31 04:47:14;;;;;;;19.60;13.57;;;;;;;11.11;100.00;100341.34;5009827;28;20739;-77
2022/10/31 04:49:40;;;;;;;26.83;13.88;;;;;;;11.17;100.00;100342.63;5004166;28;20045;-78
2022/10/31 04:52:07;;;;;;;21.35;14.68;;;;;;;11.09;100.00;100341.47;5003211;28;20180;-78
2022/10/31 04:54:34;;;;;;;23.98;15.05;;;;;;;11.14;100.00;100338.41;5005929;28;20121;-78
2022/10/31 04:57:17;;;;;;;21.50;14.55;;;;;;;11.19;100.00;100330.16;5007802;28;20100;-78
2022/10/31 04:59:43;;;;;;;21.52;14.77;;;;;;;11.18;100.00;100337.22;5004703;28;20117;-78
2022/10/31 05:02:09;;;;;;;24.40;14.07;;;;;;;11.18;100.00;100334.59;5004063;28;20426;-78
2022/10/31 05:04:53;;;;;;;30.27;15.43;;;;;;;11.16;100.00;100340.94;5009774;28;20029;-78
2022/10/31 05:07:19;;;;;;;23.75;14.40;;;;;;;11.09;100.00;100341.47;5004824;28;20157;-78
2022/10/31 05:09:45;;;;;;;22.55;14.68;;;;;;;11.09;100.00;100338.81;5005290;28;20121;-78
2022/10/31 05:12:11;;;;;;;23.75;15.20;;;;;;;11.06;100.00;100336.44;5008007;28;20486;-77
2022/10/31 05:14:55;;;;;;;26.38;15.25;;;;;;;11.05;100.00;100329.47;5003414;28;20069;-77
2022/10/31 05:17:40;;;;;;;23.20;15.02;;;;;;;11.09;100.00;100333.53;5010984;28;20502;-77
2022/10/31 05:20:28;;;;;;;24.98;16.02;;;;;;;11.08;100.00;100339.78;5003424;28;20088;-77
2022/10/31 05:23:16;;;;;;;28.70;16.75;;;;;;;11.05;100.00;100340.03;5003536;28;20038;-78
2022/10/31 05:25:42;;;;;;;27.95;16.00;;;;;;;11.02;100.00;100339.44;5020600;28;20097;-77
2022/10/31 05:28:08;;;;;;;28.60;15.15;;;;;;;10.97;100.00;100337.19;5004129;28;20018;-77
2022/10/31 05:30:34;;;;;;;26.92;14.93;;;;;;;10.99;100.00;100329.97;5004320;28;20049;-78
2022/10/31 05:33:00;;;;;;;29.63;16.70;;;;;;;10.76;100.00;100328.41;5002182;28;20108;-78
2022/10/31 05:35:44;;;;;;;22.80;14.27;;;;;;;10.79;100.00;100336.03;5004216;28;20559;-78
2022/10/31 05:38:39;;;;;;;32.90;16.17;;;;;;;10.86;100.00;100334.59;5003655;28;20045;-78
2022/10/31 05:41:13;;;;;;;27.42;15.70;;;;;;;10.87;100.00;100336.28;5009009;28;20856;-79
2022/10/31 05:43:42;;;;;;;28.07;16.73;;;;;;;10.94;100.00;100332.16;5009270;28;20574;-78
2022/10/31 05:46:08;;;;;;;22.42;14.95;;;;;;;10.94;100.00;100340.09;5009196;28;20399;-78
2022/10/31 05:49:00;;;;;;;23.33;15.23;;;;;;;10.96;100.00;100340.78;5007286;28;20046;-79
2022/10/31 05:51:43;;;;;;;24.15;15.85;;;;;;;10.97;100.00;100336.34;5005733;28;20104;-78
2022/10/31 05:54:09;;;;;;;27.58;16.48;;;;;;;10.99;100.00;100332.63;5002579;28;20434;-78
2022/10/31 05:56:37;;;;;;;29.10;16.83;;;;;;;11.01;100.00;100333.34;5002399;28;20061;-79
2022/10/31 05:59:04;;;;;;;26.45;16.23;;;;;;;10.95;100.00;100333.84;5008806;28;20547;-81
2022/10/31 06:01:29;;;;;;;25.20;17.15;;;;;;;10.67;100.00;100337.88;5000548;28;20030;-83
2022/10/31 06:03:57;;;;;;;25.30;15.98;;;;;;;10.66;100.00;100338.03;5006457;28;20160;-79
2022/10/31 06:06:23;;;;;;;27.50;16.08;;;;;;;10.73;100.00;100328.63;5008629;28;20557;-79
2022/10/31 06:08:48;;;;;;;30.67;17.15;;;;;;;10.86;100.00;100339.88;5024625;28;20052;-81
2022/10/31 06:11:18;;;;;;;26.08;16.55;;;;;;;10.86;100.00;100331.94;5008663;28;20426;-79
2022/10/31 06:14:02;;;;;;;27.23;16.40;;;;;;;10.78;100.00;100344.91;5005217;28;20553;-82
2022/10/31 06:16:48;;;;;;;29.45;16.48;;;;;;;10.85;100.00;100338.19;5006803;28;20037;-78
2022/10/31 06:19:36;;;;;;;26.20;15.88;;;;;;;10.79;100.00;100343.97;5001703;28;20125;-76
2022/10/31 06:22:02;;;;;;;26.70;17.00;;;;;;;10.76;100.00;100344.22;5005811;28;20113;-77
2022/10/31 06:24:28;;;;;;;25.55;16.65;;;;;;;10.74;100.00;100350.59;5008697;28;20037;-74
2022/10/31 06:26:53;;;;;;;28.80;16.95;;;;;;;10.76;100.00;100344.22;5005049;28;20049;-77
2022/10/31 06:29:20;;;;;;;26.75;15.93;;;;;;;10.63;100.00;100346.19;5002144;28;20092;-80
2022/10/31 06:31:56;;;;;;;28.98;16.17;;;;;;;10.57;100.00;100344.03;5008309;28;20061;-80
2022/10/31 06:34:22;;;;;;;29.23;18.23;;;;;;;10.49;100.00;100351.72;5021405;28;20030;-80
2022/10/31 06:36:48;;;;;;;29.92;17.42;;;;;;;10.63;100.00;100351.47;5025445;28;20045;-78
2022/10/31 06:39:14;;;;;;;25.50;16.13;;;;;;;10.75;100.00;100358.38;5003661;28;20048;-78
2022/10/31 06:41:41;;;;;;;28.13;17.77;;;;;;;10.64;100.00;100368.97;5004777;28;20025;-79
2022/10/31 06:44:08;;;;;;;28.77;17.60;;;;;;;10.75;100.00;100379.50;5003793;28;20038;-76
2022/10/31 06:46:52;;;;;;;25.92;17.42;;;;;;;10.68;100.00;100373.03;5004881;28;20048;-76
2022/10/31 06:49:37;;;;;;;30.45;17.45;;;;;;;10.86;100.00;100370.72;5004161;28;20042;-75
2022/10/31 06:52:08;;;;;;;25.65;16.48;;;;;;;10.98;100.00;100369.72;5009976;28;20034;-76
2022/10/31 06:54:34;;;;;;;28.90;16.92;;;;;;;10.93;100.00;100372.72;5005234;28;20046;-79
2022/10/31 06:56:59;;;;;;;28.65;16.08;;;;;;;11.00;100.00;100368.63;5008257;28;20033;-80
2022/10/31 06:59:25;;;;;;;25.80;16.95;;;;;;;10.98;100.00;100365.28;5009107;28;20038;-74
2022/10/31 07:02:13;;;;;;;27.95;17.95;;;;;;;11.09;100.00;100369.66;4992364;28;20029;-78
2022/10/31 07:04:41;;;;;;;26.52;17.17;;;;;;;11.09;100.00;100373.16;5009735;28;20129;-77
2022/10/31 07:07:07;;;;;;;26.38;17.58;;;;;;;11.14;100.00;100374.56;4995678;28;20206;-78
2022/10/31 07:09:34;;;;;;;30.88;17.30;;;;;;;11.20;100.00;100379.34;5006559;28;20045;-77
2022/10/31 07:12:02;;;;;;;28.98;18.33;;;;;;;11.11;100.00;100380.13;5008083;28;20030;-79
2022/10/31 07:14:29;;;;;;;31.67;18.45;;;;;;;11.16;100.00;100383.22;5020809;28;20065;-79
2022/10/31 07:16:55;;;;;;;29.60;18.55;;;;;;;11.17;100.00;100384.91;5003944;28;20031;-77
2022/10/31 07:19:30;;;;;;;26.05;17.40;;;;;;;11.26;100.00;100389.41;5031330;28;20042;-77
2022/10/31 07:21:56;;;;;;;26.67;17.02;;;;;;;11.34;100.00;100386.97;5019717;28;20041;-80
2022/10/31 07:24:25;;;;;;;27.75;18.65;;;;;;;11.39;100.00;100390.06;5007834;28;20121;-77
2022/10/31 07:27:35;;;;;;;27.80;17.67;;;;;;;11.36;100.00;100399.09;5014611;28;20057;-77
2022/10/31 07:30:02;;;;;;;32.50;17.98;;;;;;;11.40;100.00;100403.16;5011476;28;20453;-78
2022/10/31 07:32:37;;;;;;;28.05;17.88;;;;;;;11.18;100.00;100413.00;4991391;28;20041;-78
2022/10/31 07:35:03;;;;;;;26.50;17.20;;;;;;;11.20;100.00;100411.03;5027602;28;20030;-78
2022/10/31 07:37:40;;;;;;;31.05;18.35;;;;;;;11.32;100.00;100412.69;5011153;28;20038;-77
2022/10/31 07:40:07;;;;;;;29.02;18.40;;;;;;;11.41;100.00;100414.56;5006206;28;20033;-77
2022/10/31 07:42:37;;;;;;;23.27;17.05;;;;;;;11.37;100.00;100406.03;5003225;28;20122;-78
2022/10/31 07:45:04;;;;;;;26.23;17.80;;;;;;;11.47;100.00;100406.13;5004968;28;20087;-78
2022/10/31 07:48:02;;;;;;;27.08;18.25;;;;;;;11.55;100.00;100411.59;5004265;28;20046;-77
2022/10/31 07:50:57;;;;;;;27.42;17.08;;;;;;;11.65;100.00;100415.19;4983922;28;20046;-77
2022/10/31 07:53:41;;;;;;;27.48;17.83;;;;;;;11.75;100.00;100410.81;5006498;28;20037;-78
2022/10/31 07:56:15;;;;;;;31.80;17.75;;;;;;;11.84;100.00;100417.97;5003340;28;20031;-77
2022/10/31 07:58:41;;;;;;;29.45;18.33;;;;;;;11.80;100.00;100421.00;5024409;28;20056;-78
2022/10/31 08:01:07;;;;;;;29.80;18.05;;;;;;;11.73;100.00;100431.25;5006078;28;20025;-78
2022/10/31 08:03:41;;;;;;;27.55;18.50;;;;;;;11.72;100.00;100429.53;5006589;28;20119;-78
2022/10/31 08:06:09;;;;;;;24.88;17.73;;;;;;;11.82;100.00;100432.28;5005787;28;20070;-78
2022/10/31 08:09:10;;;;;;;;;;;;;;;11.89;100.00;100439.59;5007922;28;20538;-78
2022/10/31 08:11:35;;;;;;;26.10;17.67;;;;;;;11.81;100.00;100436.75;5008677;28;19917;-75
2022/10/31 08:14:01;;;;;;;30.45;17.02;;;;;;;11.96;100.00;100441.72;5005863;28;20038;-77
2022/10/31 08:16:27;;;;;;;29.23;17.40;;;;;;;12.03;100.00;100441.03;4990924;28;20030;-78
2022/10/31 08:18:57;;;;;;;28.30;16.83;;;;;;;12.21;100.00;100441.28;5007832;28;20033;-78
2022/10/31 08:21:23;;;;;;;24.88;17.10;;;;;;;12.22;100.00;100437.66;5010371;28;20105;-77
2022/10/31 08:23:48;;;;;;;28.23;17.10;;;;;;;12.21;100.00;100436.00;5005072;28;20041;-78
2022/10/31 08:26:14;;;;;;;26.58;17.30;;;;;;;12.29;100.00;100438.81;5012242;28;20065;-78
2022/10/31 08:28:39;;;;;;;26.42;17.60;;;;;;;12.24;100.00;100435.75;5006581;28;20045;-77
2022/10/31 08:31:05;;;;;;;28.13;17.30;;;;;;;12.29;100.00;100431.72;5022008;28;20132;-78
2022/10/31 08:33:40;;;;;;;31.30;17.90;;;;;;;12.30;100.00;100429.91;5009802;28;20042;-76
2022/10/31 08:36:17;;;;;;;27.58;18.02;;;;;;;12.49;100.00;100440.56;5011020;28;20042;-78
2022/10/31 08:38:52;;;;;;;24.15;17.02;;;;;;;12.51;100.00;100443.09;5005737;28;20113;-78
2022/10/31 08:41:17;;;;;;;25.02;17.45;;;;;;;12.63;100.00;100437.56;5009165;28;20554;-79
2022/10/31 08:43:43;;;;;;;23.88;15.70;;;;;;;12.63;100.00;100437.56;5008241;28;20034;-78
2022/10/31 08:46:08;;;;;;;27.35;16.73;;;;;;;12.70;100.00;100433.41;5001089;28;20054;-79
2022/10/31 08:48:34;;;;;;;27.70;18.20;;;;;;;12.85;100.00;100440.97;5007284;28;20423;-79
2022/10/31 08:51:01;;;;;;;24.27;17.08;;;;;;;12.79;100.00;100446.78;5009509;28;20080;-78
2022/10/31 08:53:28;;;;;;;30.23;16.65;;;;;;;12.73;100.00;100443.72;5008495;28;20568;-79
2022/10/31 08:56:23;;;;;;;25.63;15.52;;;;;;;12.88;100.00;100441.53;5009018;28;20045;-77
2022/10/31 08:58:48;;;;;;;31.10;17.77;;;;;;;13.06;100.00;100431.13;5005395;28;20205;-79
2022/10/31 09:01:14;;;;;;;29.38;16.77;;;;;;;13.22;100.00;100433.25;5001404;28;20054;-78
2022/10/31 09:03:42;;;;;;;26.05;16.50;;;;;;;13.30;100.00;100434.25;5007761;28;20597;-78
2022/10/31 09:06:09;;;;;;;25.60;16.00;;;;;;;13.38;100.00;100422.94;5007482;28;20042;-81
2022/10/31 09:08:35;;;;;;;28.10;17.25;;;;;;;13.42;100.00;100424.34;5001730;28;20161;-79
2022/10/31 09:11:02;;;;;;;24.30;14.75;;;;;;;13.44;100.00;100422.38;5004585;28;20038;-79
2022/10/31 09:14:06;;;;;;;26.40;15.32;;;;;;;13.56;100.00;100420.41;5003324;28;20050;-77
2022/10/31 09:16:37;;;;;;;23.40;14.45;;;;;;;13.63;100.00;100421.53;5002827;28;20070;-78
2022/10/31 09:19:04;;;;;;;23.23;15.43;;;;;;;13.69;100.00;100418.31;5003883;28;20041;-78
2022/10/31 09:21:30;;;;;;;26.75;15.68;;;;;;;13.74;100.00;100416.91;5009449;28;20502;-78
2022/10/31 09:23:57;;;;;;;21.88;15.18;;;;;;;13.71;100.00;100419.03;5004753;28;20113;-78
2022/10/31 09:26:23;;;;;;;22.55;14.02;;;;;;;13.79;100.00;100416.47;5005345;28;20033;-78
2022/10/31 09:28:58;;;;;;;23.88;14.38;;;;;;;13.85;100.00;100416.75;5006737;28;20122;-78
2022/10/31 09:31:23;;;;;;;23.10;15.18;;;;;;;13.90;100.00;100414.50;5005116;28;20033;-77
2022/10/31 09:33:56;;;;;;;23.70;14.85;;;;;;;14.01;100.00;100413.50;5021662;28;20362;-78
2022/10/31 09:36:43;;;;;;;28.30;15.75;;;;;;;14.06;100.00;100413.06;5004383;28;20042;-78
2022/10/31 09:39:20;;;;;;;24.80;14.88;;;;;;;14.16;100.00;100408.56;5000700;28;20380;-78
2022/10/31 09:42:19;;;;;;;24.17;15.57;;;;;;;14.37;100.00;100411.03;5003935;28;20412;-78
2022/10/31 09:45:00;;;;;;;24.13;15.85;;;;;;;14.53;100.00;100421.88;5003059;28;20414;-77
2022/10/31 09:47:51;;;;;;;25.10;15.88;;;;;;;14.66;100.00;100414.41;4986905;28;20420;-78
2022/10/31 09:50:51;;;;;;;23.67;15.57;;;;;;;14.77;100.00;100408.88;4998884;28;20837;-78
2022/10/31 09:53:43;;;;;;;27.80;15.93;;;;;;;14.91;100.00;100411.00;5003233;28;20469;-78
2022/10/31 09:56:14;;;;;;;21.98;14.93;;;;;;;14.99;100.00;100411.13;5009162;28;20880;-78
2022/10/31 09:59:02;;;;;;;24.42;15.15;;;;;;;15.10;100.00;100408.22;5002946;28;20422;-77
2022/10/31 10:01:45;;;;;;;24.33;15.30;;;;;;;15.18;100.00;100406.66;5021331;28;20406;-78
2022/10/31 10:04:11;;;;;;;21.25;14.25;;;;;;;15.27;100.00;100417.19;5002354;28;20404;-78
2022/10/31 10:07:05;;;;;;;21.23;13.00;;;;;;;15.23;100.00;100409.69;5002485;28;20042;-79
2022/10/31 10:09:42;;;;;;;;;;;;;;;15.28;100.00;100407.41;5004571;28;20502;-77
2022/10/31 10:12:38;;;;;;;;;;;;;;;15.35;100.00;100404.00;5005490;28;19945;-78
2022/10/31 10:15:07;;;;;;;;;;;;;;;15.41;100.00;100408.69;5026437;28;19918;-78
2022/10/31 10:17:41;;;;;;;;;;;;;;;15.51;100.00;100403.28;5008620;28;20298;-78
2022/10/31 10:20:13;;;;;;;;;;;;;;;15.54;100.00;100403.03;5005814;28;19918;-78
2022/10/31 10:22:41;;;;;;;;;;;;;;;15.54;100.00;100403.03;5009388;28;19921;-78
2022/10/31 10:25:25;;;;;;;;;;;;;;;15.54;100.00;100403.03;5004920;28;20000;-78
2022/10/31 10:28:14;;;;;;;18.65;11.52;;;;;;;15.55;100.00;100399.38;5005051;28;20016;-79
2022/10/31 10:30:51;;;;;;;22.02;11.30;;;;;;;15.58;100.00;100393.75;5009881;28;20041;-79
2022/10/31 10:33:22;;;;;;;19.92;11.13;;;;;;;15.66;100.00;100388.50;5011475;28;20072;-78
2022/10/31 10:36:05;;;;;;;19.52;10.52;;;;;;;15.74;100.00;100393.84;5005286;28;20092;-76
2022/10/31 10:38:40;;;;;;;16.92;11.15;;;;;;;15.82;100.00;100401.06;5006832;28;20046;-80
2022/10/31 10:41:09;;;;;;;;;;;;;;;15.89;100.00;100402.94;5005786;28;20033;-79
2022/10/31 10:43:36;;;;;;;;;;;;;;;15.97;100.00;100395.00;5012601;28;20366;-78
2022/10/31 10:49:00;;;;;;;;;;;;;;;16.06;100.00;100392.41;5009514;28;19917;-79
2022/10/31 10:51:47;;;;;;;;;;;;;;;16.10;100.00;100391.09;5008782;28;19981;-75
2022/10/31 10:54:32;;;;;;;;;;;;;;;16.16;100.00;100387.78;5013741;28;19913;-77
2022/10/31 10:57:01;;;;;;;;;;;;;;;16.21;100.00;100390.81;5004267;28;19967;-79
2022/10/31 10:59:26;;;;;;;;;;;;;;;16.25;100.00;100386.84;5005130;28;19968;-79
2022/10/31 11:01:52;;;;;;;;;;;;;;;16.32;100.00;100379.88;5003547;28;19953;-81
2022/10/31 11:04:29;;;;;;;;;;;;;;;16.44;100.00;100386.59;5006272;28;19964;-78
2022/10/31 11:07:03;;;;;;;;;;;;;;;16.53;100.00;100374.97;5004442;28;19928;-80
2022/10/31 11:09:28;;;;;;;;;;;;;;;16.60;100.00;100370.72;5007579;28;20004;-80
2022/10/31 11:11:55;;;;;;;;;;;;;;;16.65;100.00;100373.72;5006400;28;19977;-78
2022/10/31 11:14:22;;;;;;;20.63;10.68;;;;;;;16.73;100.00;100365.72;5007862;28;20401;-80
2022/10/31 11:16:51;;;;;;;17.77;9.75;;;;;;;16.82;100.00;100360.44;5001937;28;20035;-78
2022/10/31 11:19:26;;;;;;;16.45;10.05;;;;;;;16.88;100.00;100357.13;5008221;28;20042;-80
2022/10/31 11:21:52;;;;;;;17.25;10.50;;;;;;;16.96;100.00;100341.97;5004904;28;20042;-78
2022/10/31 11:24:22;;;;;;;16.45;10.05;;;;;;;17.03;100.00;100344.78;5001603;28;20077;-77
2022/10/31 11:26:50;;;;;;;21.00;11.45;;;;;;;17.23;100.00;100351.50;5003469;28;20404;-79
2022/10/31 11:29:25;;;;;;;19.52;10.90;;;;;;;17.45;100.00;100349.97;5001064;28;20396;-78
2022/10/31 11:31:53;;;;;;;19.93;12.53;;;;;;;17.59;100.00;100351.97;5003239;28;20966;-77
2022/10/31 11:34:32;;;;;;;19.35;12.10;;;;;;;17.69;100.00;100354.50;5001024;28;20421;-77
2022/10/31 11:37:13;;;;;;;20.23;11.20;;;;;;;17.79;100.00;100347.16;5004587;28;20416;-78
2022/10/31 11:39:45;;;;;;;17.63;10.50;;;;;;;17.93;100.00;100338.44;5004747;28;20419;-79